CDT,Max TemperatureF,Mean TemperatureF,Min TemperatureF,Max Dew PointF,MeanDew PointF,Min DewpointF,Max Humidity, Mean Humidity, Min Humidity, Max Sea Level PressureIn, Mean Sea Level PressureIn, Min Sea Level PressureIn, Max VisibilityMiles, Mean VisibilityMiles, Min VisibilityMiles, Max Wind SpeedMPH, Mean Wind SpeedMPH, Max Gust SpeedMPH,PrecipitationIn, CloudCover, Events, WindDirDegrees
2013-3-1,31,29,26,27,20,16,92,78,63,30.28,30.18,30.10,10,8,2,16,10,21,0.02,8,Snow,31
2013-3-2,29,19,8,18,11,5,84,67,50,30.29,30.26,30.20,10,10,10,15,6,20,0.00,1,,311
2013-3-3,31,16,1,14,8,-2,88,64,39,30.22,30.14,30.08,10,9,5,12,4,14,0.00,0,,126
2013-3-4,33,28,23,26,22,14,81,72,62,30.10,29.98,29.92,10,8,1,28,16,37,0.03,7,Snow,97
2013-3-5,32,30,28,28,26,23,92,82,72,30.16,29.93,29.87,10,3,0,26,11,31,0.26,8,Fog-Snow,331
2013-3-6,29,25,21,22,19,17,84,76,68,30.38,30.32,30.15,10,10,10,17,9,24,0.00,7,,314
2013-3-7,32,26,20,23,20,17,88,76,63,30.44,30.41,30.37,10,9,7,12,5,15,0.00,5,,122
2013-3-8,38,26,14,30,24,13,92,81,70,30.44,30.36,30.22,10,8,5,17,10,23,0.00,0,,108
2013-3-9,41,38,35,38,34,30,100,91,82,30.20,29.96,29.77,9,5,2,18,8,24,0.46,8,Rain,129
2013-3-10,45,41,37,45,41,37,100,95,89,29.76,29.67,29.57,7,2,0,22,5,28,1.25,8,Fog-Rain,158
2013-3-11,38,34,29,37,32,21,100,85,69,29.90,29.68,29.59,10,4,0,24,11,31,0.08,8,Fog-Rain-Snow,278
2013-3-12,35,30,24,30,24,18,88,76,63,30.15,30.01,29.88,10,6,0,29,15,37,0.12,7,Fog-Snow,277
2013-3-13,35,29,22,18,16,15,77,61,44,30.39,30.32,30.15,10,10,10,23,11,31,0.00,1,,307
2013-3-14,46,34,22,30,24,18,88,69,49,30.37,30.22,30.07,10,10,10,20,7,24,0.00,3,,128
2013-3-15,47,37,26,37,31,25,92,76,60,30.07,29.88,29.70,8,6,3,15,5,17,0.00,2,,72
2013-3-16,39,35,30,34,29,23,100,80,59,30.16,29.95,29.72,10,6,2,14,8,20,0.00,8,,6
2013-3-17,37,32,26,25,22,16,72,65,58,30.20,30.10,29.94,10,10,10,20,14,23,0.00,4,,82
2013-3-18,38,30,21,32,26,13,92,77,62,29.93,29.78,29.67,10,6,1,32,15,45,0.08,8,Rain-Snow,257
2013-3-19,35,26,17,18,11,6,67,54,40,30.19,30.09,29.91,10,10,10,30,18,38,0.00,1,,287
2013-3-20,27,21,14,17,7,3,68,55,42,30.24,30.18,30.10,10,10,10,30,18,38,0.00,2,,303
2013-3-21,35,24,12,15,8,5,77,56,35,30.14,30.10,30.04,10,10,10,13,4,17,0.00,0,,325
2013-3-22,43,29,15,20,16,12,92,63,33,30.10,30.07,29.99,10,10,9,12,3,14,0.00,1,,17
2013-3-23,45,35,25,22,19,16,75,54,33,30.12,30.07,30.01,10,10,10,15,6,20,0.00,4,,57
2013-3-24,34,32,30,29,27,22,92,77,61,30.01,29.84,29.73,10,2,0,18,11,25,0.27,8,Fog-Snow,19
2013-3-25,37,34,30,27,24,20,85,72,59,30.17,29.96,29.83,10,9,2,18,12,24,T,8,Snow,338
2013-3-26,43,35,27,26,23,20,78,63,48,30.32,30.25,30.17,10,10,10,23,11,29,0.00,6,,300
2013-3-27,47,36,25,27,23,19,92,63,34,30.38,30.34,30.30,10,10,7,12,4,17,0.00,2,,275
2013-3-28,54,38,22,32,25,19,88,62,35,30.38,30.33,30.27,10,10,9,9,1,12,0.00,2,,96
2013-3-29,59,43,27,32,29,24,92,63,33,30.32,30.27,30.22,10,9,4,9,3,16,0.00,1,,101
2013-3-30,57,44,30,43,36,26,86,67,47,30.22,30.02,29.87,10,9,6,22,10,29,T,5,,185
2013-3-31,56,45,34,45,37,22,100,69,38,29.99,29.86,29.81,10,6,1,28,14,33,0.00,6,,288